KCMI

University of Illinois-Willard Airport

Champaign/Urbana, Illinois, USA
KCMI 221517Z 2215/2312 16018G27KT P6SM -FZDZ OVC035 WS020/18055KT FM222100 17018G28KT 6SM -RA BR OVC015 WS020/19055KT FM230100 17016G26KT 4SM -RA BR OVC008 WS020/19055KT FM230600 18015G23KT 2SM RA BR OVC005
Issued Valid From Valid To
Jan-22 @ 15:17 UTC
(2 hours ago)
Jan-22 @ 15:00 UTC
(2 hours ago)
Jan-23 @ 12:00 UTC
(in 19 hours)
Jan-22 @ 15:00 to Jan-22 @ 21:00
KCMI 221517Z 2215/2312 16018G27KT P6SM -FZDZ OVC035 WS020/18055KT
Wind Visibility Clouds Conditions
160° at 18 knots
 Gusting to 27 knots
 Wind shear 2,000' AGL from 180° at 55 knots
Greater than 6 miles
  • Overcast at 3,500' AGL
  • Light Freezing
  • Light Drizzle
From Jan-22 @ 21:00 to Jan-23 @ 01:00
FM222100 17018G28KT 6SM -RA BR OVC015 WS020/19055KT
Wind Visibility Clouds Conditions
170° at 18 knots
 Gusting to 28 knots
 Wind shear 2,000' AGL from 190° at 55 knots
6 miles
  • Overcast at 1,500' AGL
  • Light Rain
  • Mist
From Jan-23 @ 01:00 to Jan-23 @ 06:00
FM230100 17016G26KT 4SM -RA BR OVC008 WS020/19055KT
Wind Visibility Clouds Conditions
170° at 16 knots
 Gusting to 26 knots
 Wind shear 2,000' AGL from 190° at 55 knots
4 miles
  • Overcast at 800' AGL
  • Light Rain
  • Mist
From Jan-23 @ 06:00 to Jan-23 @ 12:00
FM230600 18015G23KT 2SM RA BR OVC005
Wind Visibility Clouds Conditions
180° at 15 knots
 Gusting to 23 knots
2 miles
  • Overcast at 500' AGL
  • Rain
  • Mist
KCMI 221517Z 2215/2312 16018G27KT P6SM -FZDZ OVC035 WS020/18055KT FM222100 17018G28KT 6SM -RA BR OVC015 WS020/19055KT FM230100 17016G26KT 4SM -RA BR OVC008 WS020/19055KT FM230600 18015G23KT 2SM RA BR OVC005
Issued Jan-22 @ 15:17 UTC
(2 hours ago)
Valid From Jan-22 @ 15:00 UTC
(2 hours ago)
Valid To Jan-23 @ 12:00 UTC
(in 19 hours)
Jan-22 @ 15:00 - Jan-22 @ 21:00
Wind Visibility
160° at 18 knots
 Gusting to 27 knots
Greater than 6 miles
Clouds
  • Overcast at 3,500' AGL
Conditions
  • Light Freezing
  • Light Drizzle
From Jan-22 @ 21:00 - Jan-23 @ 01:00
Wind Visibility
170° at 18 knots
 Gusting to 28 knots
6 miles
Clouds
  • Overcast at 1,500' AGL
Conditions
  • Light Rain
  • Mist
From Jan-23 @ 01:00 - Jan-23 @ 06:00
Wind Visibility
170° at 16 knots
 Gusting to 26 knots
4 miles
Clouds
  • Overcast at 800' AGL
Conditions
  • Light Rain
  • Mist
From Jan-23 @ 06:00 - Jan-23 @ 12:00
Wind Visibility
180° at 15 knots
 Gusting to 23 knots
2 miles
Clouds
  • Overcast at 500' AGL
Conditions
  • Rain
  • Mist